sensor_id;sensor_type;location;lat;lon;timestamp;pressure;altitude;pressure_sealevel;temperature;humidity
83118;BME280;73000;51.784;4.660;2023-11-18T00:02:15;102545.38;;;6.46;89.83
83118;BME280;73000;51.784;4.660;2023-11-18T00:04:40;102538.66;;;6.36;89.02
83118;BME280;73000;51.784;4.660;2023-11-18T00:07:05;102550.25;;;6.44;88.75
83118;BME280;73000;51.784;4.660;2023-11-18T00:09:31;102543.91;;;6.44;89.75
83118;BME280;73000;51.784;4.660;2023-11-18T00:11:56;102532.34;;;6.35;89.08
83118;BME280;73000;51.784;4.660;2023-11-18T00:14:21;102537.38;;;6.38;89.19
83118;BME280;73000;51.784;4.660;2023-11-18T00:16:47;102533.38;;;6.41;88.97
83118;BME280;73000;51.784;4.660;2023-11-18T00:19:12;102533.59;;;6.39;89.60
83118;BME280;73000;51.784;4.660;2023-11-18T00:21:37;102528.97;;;6.33;89.57
83118;BME280;73000;51.784;4.660;2023-11-18T00:24:03;102531.88;;;6.38;89.06
83118;BME280;73000;51.784;4.660;2023-11-18T00:26:30;102517.59;;;6.23;89.09
83118;BME280;73000;51.784;4.660;2023-11-18T00:28:55;102529.84;;;6.27;89.47
83118;BME280;73000;51.784;4.660;2023-11-18T00:31:20;102528.38;;;6.25;89.37
83118;BME280;73000;51.784;4.660;2023-11-18T00:33:46;102520.81;;;6.20;89.32
83118;BME280;73000;51.784;4.660;2023-11-18T00:36:11;102531.13;;;6.25;89.20
83118;BME280;73000;51.784;4.660;2023-11-18T00:38:37;102526.47;;;6.25;89.65
83118;BME280;73000;51.784;4.660;2023-11-18T00:41:03;102530.78;;;6.15;89.26
83118;BME280;73000;51.784;4.660;2023-11-18T00:43:28;102526.94;;;6.16;89.50
83118;BME280;73000;51.784;4.660;2023-11-18T00:45:54;102546.56;;;6.26;89.22
83118;BME280;73000;51.784;4.660;2023-11-18T00:48:19;102551.00;;;6.27;89.17
83118;BME280;73000;51.784;4.660;2023-11-18T00:50:44;102551.00;;;6.27;89.54
83118;BME280;73000;51.784;4.660;2023-11-18T00:53:10;102551.81;;;6.27;89.61
83118;BME280;73000;51.784;4.660;2023-11-18T00:55:36;102536.66;;;6.18;89.86
83118;BME280;73000;51.784;4.660;2023-11-18T00:58:01;102550.31;;;6.31;89.12
83118;BME280;73000;51.784;4.660;2023-11-18T01:00:26;102542.97;;;6.25;89.89
83118;BME280;73000;51.784;4.660;2023-11-18T01:02:52;102539.31;;;6.31;89.66
83118;BME280;73000;51.784;4.660;2023-11-18T01:05:20;102546.91;;;6.36;89.37
83118;BME280;73000;51.784;4.660;2023-11-18T01:07:45;102529.41;;;6.30;89.43
83118;BME280;73000;51.784;4.660;2023-11-18T01:10:11;102544.81;;;6.31;90.36
83118;BME280;73000;51.784;4.660;2023-11-18T01:12:37;102542.06;;;6.31;90.16
83118;BME280;73000;51.784;4.660;2023-11-18T01:15:03;102548.84;;;6.35;89.41
83118;BME280;73000;51.784;4.660;2023-11-18T01:17:29;102546.25;;;6.40;89.90
83118;BME280;73000;51.784;4.660;2023-11-18T01:19:55;102562.75;;;6.40;89.37
83118;BME280;73000;51.784;4.660;2023-11-18T01:22:20;102545.66;;;6.32;89.85
83118;BME280;73000;51.784;4.660;2023-11-18T01:24:46;102542.31;;;6.30;89.38
83118;BME280;73000;51.784;4.660;2023-11-18T01:27:11;102539.16;;;6.26;90.30
83118;BME280;73000;51.784;4.660;2023-11-18T01:29:37;102543.34;;;6.35;90.12
83118;BME280;73000;51.784;4.660;2023-11-18T01:32:02;102552.19;;;6.37;90.26
83118;BME280;73000;51.784;4.660;2023-11-18T01:34:34;102536.56;;;6.31;89.89
83118;BME280;73000;51.784;4.660;2023-11-18T01:36:59;102553.88;;;6.38;90.14
83118;BME280;73000;51.784;4.660;2023-11-18T01:39:25;102553.88;;;6.38;89.87
83118;BME280;73000;51.784;4.660;2023-11-18T01:41:51;102542.88;;;6.38;89.97
83118;BME280;73000;51.784;4.660;2023-11-18T01:44:17;102559.09;;;6.46;89.74
83118;BME280;73000;51.784;4.660;2023-11-18T01:46:45;102538.06;;;6.34;89.47
83118;BME280;73000;51.784;4.660;2023-11-18T01:49:11;102536.78;;;6.36;89.60
83118;BME280;73000;51.784;4.660;2023-11-18T01:51:40;102534.03;;;6.36;89.27
83118;BME280;73000;51.784;4.660;2023-11-18T01:54:07;102539.56;;;6.30;90.26
83118;BME280;73000;51.784;4.660;2023-11-18T01:56:32;102544.00;;;6.31;89.69
83118;BME280;73000;51.784;4.660;2023-11-18T01:58:58;102557.66;;;6.44;89.98
83118;BME280;73000;51.784;4.660;2023-11-18T02:01:26;102569.72;;;6.43;89.60
83118;BME280;73000;51.784;4.660;2023-11-18T02:03:52;102566.53;;;6.46;89.30
83118;BME280;73000;51.784;4.660;2023-11-18T02:06:18;102548.38;;;6.38;89.58
83118;BME280;73000;51.784;4.660;2023-11-18T02:08:43;102563.34;;;6.42;89.45
83118;BME280;73000;51.784;4.660;2023-11-18T02:11:28;102548.03;;;6.28;89.59
83118;BME280;73000;51.784;4.660;2023-11-18T02:13:58;102550.56;;;6.30;90.10
83118;BME280;73000;51.784;4.660;2023-11-18T02:16:28;102550.50;;;6.36;90.10
83118;BME280;73000;51.784;4.660;2023-11-18T02:18:53;102563.34;;;6.49;89.73
83118;BME280;73000;51.784;4.660;2023-11-18T02:21:20;102563.13;;;6.50;89.27
83118;BME280;73000;51.784;4.660;2023-11-18T02:23:47;102560.38;;;6.50;89.25
83118;BME280;73000;51.784;4.660;2023-11-18T02:26:21;102561.84;;;6.46;88.89
83118;BME280;73000;51.784;4.660;2023-11-18T02:28:46;102556.22;;;6.35;90.00
83118;BME280;73000;51.784;4.660;2023-11-18T02:31:16;102565.50;;;6.40;89.58
83118;BME280;73000;51.784;4.660;2023-11-18T02:34:01;102541.84;;;6.39;90.25
83118;BME280;73000;51.784;4.660;2023-11-18T02:36:35;102540.75;;;6.40;89.52
83118;BME280;73000;51.784;4.660;2023-11-18T02:39:08;102531.28;;;6.36;89.52
83118;BME280;73000;51.784;4.660;2023-11-18T02:41:38;102516.91;;;6.34;90.30
83118;BME280;73000;51.784;4.660;2023-11-18T02:44:06;102527.19;;;6.45;89.59
83118;BME280;73000;51.784;4.660;2023-11-18T02:46:36;102515.41;;;6.38;89.04
83118;BME280;73000;51.784;4.660;2023-11-18T02:49:02;102508.88;;;6.39;89.31
83118;BME280;73000;51.784;4.660;2023-11-18T02:51:27;102521.25;;;6.48;89.15
83118;BME280;73000;51.784;4.660;2023-11-18T02:53:53;102517.44;;;6.49;89.17
83118;BME280;73000;51.784;4.660;2023-11-18T02:56:18;102497.66;;;6.41;89.17
83118;BME280;73000;51.784;4.660;2023-11-18T02:58:44;102490.88;;;6.37;89.75
83118;BME280;73000;51.784;4.660;2023-11-18T03:01:10;102491.53;;;6.39;89.66
83118;BME280;73000;51.784;4.660;2023-11-18T03:03:35;102509.41;;;6.48;89.42
83118;BME280;73000;51.784;4.660;2023-11-18T03:06:00;102508.19;;;6.44;89.89
83118;BME280;73000;51.784;4.660;2023-11-18T03:08:25;102505.66;;;6.42;89.64
83118;BME280;73000;51.784;4.660;2023-11-18T03:10:54;102501.28;;;6.35;89.86
83118;BME280;73000;51.784;4.660;2023-11-18T03:13:19;102498.91;;;6.38;89.88
83118;BME280;73000;51.784;4.660;2023-11-18T03:15:44;102504.41;;;6.38;90.10
83118;BME280;73000;51.784;4.660;2023-11-18T03:18:12;102487.97;;;6.32;89.09
83118;BME280;73000;51.784;4.660;2023-11-18T03:20:37;102490.66;;;6.38;89.46
83118;BME280;73000;51.784;4.660;2023-11-18T03:23:03;102472.78;;;6.29;89.62
83118;BME280;73000;51.784;4.660;2023-11-18T03:25:30;102472.28;;;6.39;89.57
83118;BME280;73000;51.784;4.660;2023-11-18T03:27:55;102464.47;;;6.36;89.37
83118;BME280;73000;51.784;4.660;2023-11-18T03:30:20;102483.19;;;6.52;89.24
83118;BME280;73000;51.784;4.660;2023-11-18T03:32:46;102482.78;;;6.48;89.03
83118;BME280;73000;51.784;4.660;2023-11-18T03:35:11;102447.94;;;6.42;89.39
83118;BME280;73000;51.784;4.660;2023-11-18T03:37:40;102466.47;;;6.53;89.22
83118;BME280;73000;51.784;4.660;2023-11-18T03:40:13;102438.94;;;6.35;89.10
83118;BME280;73000;51.784;4.660;2023-11-18T03:42:40;102455.75;;;6.45;89.06
83118;BME280;73000;51.784;4.660;2023-11-18T03:45:06;102430.06;;;6.33;89.63
83118;BME280;73000;51.784;4.660;2023-11-18T03:47:32;102430.56;;;6.48;88.94
83118;BME280;73000;51.784;4.660;2023-11-18T03:49:58;102427.53;;;6.56;89.57
83118;BME280;73000;51.784;4.660;2023-11-18T03:52:24;102431.97;;;6.57;89.13
83118;BME280;73000;51.784;4.660;2023-11-18T03:54:49;102441.44;;;6.61;88.58
83118;BME280;73000;51.784;4.660;2023-11-18T03:57:15;102434.06;;;6.62;87.93
83118;BME280;73000;51.784;4.660;2023-11-18T03:59:40;102445.28;;;6.60;88.47
83118;BME280;73000;51.784;4.660;2023-11-18T04:02:08;102449.69;;;6.61;87.94
83118;BME280;73000;51.784;4.660;2023-11-18T04:04:37;102428.19;;;6.52;88.09
83118;BME280;73000;51.784;4.660;2023-11-18T04:07:02;102434.28;;;6.60;88.15
83118;BME280;73000;51.784;4.660;2023-11-18T04:09:28;102420.31;;;6.62;88.38
83118;BME280;73000;51.784;4.660;2023-11-18T04:11:53;102417.50;;;6.68;87.69
83118;BME280;73000;51.784;4.660;2023-11-18T04:14:18;102393.91;;;6.61;87.87
83118;BME280;73000;51.784;4.660;2023-11-18T04:16:47;102412.19;;;6.73;87.97
83118;BME280;73000;51.784;4.660;2023-11-18T04:19:13;102390.00;;;6.68;88.14
83118;BME280;73000;51.784;4.660;2023-11-18T04:21:39;102403.75;;;6.68;87.57
83118;BME280;73000;51.784;4.660;2023-11-18T04:24:04;102396.56;;;6.67;87.75
83118;BME280;73000;51.784;4.660;2023-11-18T04:26:31;102397.44;;;6.68;87.83
83118;BME280;73000;51.784;4.660;2023-11-18T04:28:56;102394.69;;;6.68;87.95
83118;BME280;73000;51.784;4.660;2023-11-18T04:31:22;102389.56;;;6.71;87.73
83118;BME280;73000;51.784;4.660;2023-11-18T04:33:47;102388.72;;;6.71;88.09
83118;BME280;73000;51.784;4.660;2023-11-18T04:36:13;102385.72;;;6.72;87.84
83118;BME280;73000;51.784;4.660;2023-11-18T04:38:39;102368.97;;;6.56;87.09
83118;BME280;73000;51.784;4.660;2023-11-18T04:41:05;102366.50;;;6.48;87.68
83118;BME280;73000;51.784;4.660;2023-11-18T04:43:31;102383.50;;;6.63;87.36
83118;BME280;73000;51.784;4.660;2023-11-18T04:45:57;102388.31;;;6.67;87.37
83118;BME280;73000;51.784;4.660;2023-11-18T04:48:22;102369.16;;;6.61;88.06
83118;BME280;73000;51.784;4.660;2023-11-18T04:50:47;102375.22;;;6.69;87.81
83118;BME280;73000;51.784;4.660;2023-11-18T04:53:13;102373.28;;;6.70;87.73
83118;BME280;73000;51.784;4.660;2023-11-18T04:55:39;102355.00;;;6.57;87.36
83118;BME280;73000;51.784;4.660;2023-11-18T04:58:04;102376.88;;;6.70;87.19
83118;BME280;73000;51.784;4.660;2023-11-18T05:00:31;102371.38;;;6.70;87.50
83118;BME280;73000;51.784;4.660;2023-11-18T05:02:57;102354.13;;;6.63;87.86
83118;BME280;73000;51.784;4.660;2023-11-18T05:05:23;102327.28;;;6.59;87.70
83118;BME280;73000;51.784;4.660;2023-11-18T05:07:48;102341.75;;;6.72;86.94
83118;BME280;73000;51.784;4.660;2023-11-18T05:10:13;102324.94;;;6.62;87.18
83118;BME280;73000;51.784;4.660;2023-11-18T05:12:39;102323.25;;;6.61;87.45
83118;BME280;73000;51.784;4.660;2023-11-18T05:15:06;102337.56;;;6.70;87.47
83118;BME280;73000;51.784;4.660;2023-11-18T05:17:34;102336.09;;;6.67;87.26
83118;BME280;73000;51.784;4.660;2023-11-18T05:20:04;102331.06;;;6.64;87.04
83118;BME280;73000;51.784;4.660;2023-11-18T05:22:29;102330.16;;;6.70;88.00
83118;BME280;73000;51.784;4.660;2023-11-18T05:24:56;102338.47;;;6.64;87.48
83118;BME280;73000;51.784;4.660;2023-11-18T05:27:21;102336.72;;;6.69;87.04
83118;BME280;73000;51.784;4.660;2023-11-18T05:29:46;102310.28;;;6.68;87.17
83118;BME280;73000;51.784;4.660;2023-11-18T05:32:19;102309.06;;;6.64;86.90
83118;BME280;73000;51.784;4.660;2023-11-18T05:34:45;102329.84;;;6.78;86.79
83118;BME280;73000;51.784;4.660;2023-11-18T05:37:11;102322.06;;;6.75;86.71
83118;BME280;73000;51.784;4.660;2023-11-18T05:39:36;102312.06;;;6.81;87.09
83118;BME280;73000;51.784;4.660;2023-11-18T05:42:08;102318.31;;;6.88;86.64
83118;BME280;73000;51.784;4.660;2023-11-18T05:44:36;102303.50;;;6.89;86.52
83118;BME280;73000;51.784;4.660;2023-11-18T05:47:03;102310.31;;;6.86;87.28
83118;BME280;73000;51.784;4.660;2023-11-18T05:49:28;102309.72;;;6.84;86.52
83118;BME280;73000;51.784;4.660;2023-11-18T05:51:54;102302.91;;;6.87;86.71
83118;BME280;73000;51.784;4.660;2023-11-18T05:54:19;102276.25;;;6.69;86.87
83118;BME280;73000;51.784;4.660;2023-11-18T05:56:45;102276.00;;;6.71;86.42
83118;BME280;73000;51.784;4.660;2023-11-18T05:59:10;102260.97;;;6.73;87.30
83118;BME280;73000;51.784;4.660;2023-11-18T06:01:36;102281.22;;;6.79;87.24
83118;BME280;73000;51.784;4.660;2023-11-18T06:04:02;102275.75;;;6.72;86.60
83118;BME280;73000;51.784;4.660;2023-11-18T06:06:27;102297.22;;;6.82;86.37
83118;BME280;73000;51.784;4.660;2023-11-18T06:08:53;102271.50;;;6.76;86.66
83118;BME280;73000;51.784;4.660;2023-11-18T06:11:19;102264.00;;;6.83;86.11
83118;BME280;73000;51.784;4.660;2023-11-18T06:13:51;102265.00;;;6.89;87.09
83118;BME280;73000;51.784;4.660;2023-11-18T06:16:21;102263.09;;;6.89;86.79
83118;BME280;73000;51.784;4.660;2023-11-18T06:18:52;102236.16;;;6.80;86.44
83118;BME280;73000;51.784;4.660;2023-11-18T06:21:19;102256.16;;;6.87;87.07
83118;BME280;73000;51.784;4.660;2023-11-18T06:23:46;102255.38;;;6.80;87.02
83118;BME280;73000;51.784;4.660;2023-11-18T06:26:13;102268.06;;;6.81;87.19
83118;BME280;73000;51.784;4.660;2023-11-18T06:28:42;102270.28;;;6.90;86.42
83118;BME280;73000;51.784;4.660;2023-11-18T06:31:08;102262.03;;;6.90;87.08
83118;BME280;73000;51.784;4.660;2023-11-18T06:33:41;102260.81;;;6.86;86.33
83118;BME280;73000;51.784;4.660;2023-11-18T06:36:09;102256.38;;;6.85;86.72
83118;BME280;73000;51.784;4.660;2023-11-18T06:38:36;102255.31;;;6.86;86.85
83118;BME280;73000;51.784;4.660;2023-11-18T06:41:05;102259.28;;;6.90;87.37
83118;BME280;73000;51.784;4.660;2023-11-18T06:43:35;102258.59;;;6.95;87.52
83118;BME280;73000;51.784;4.660;2023-11-18T06:46:16;102255.31;;;6.86;86.52
83118;BME280;73000;51.784;4.660;2023-11-18T06:48:41;102262.16;;;6.95;86.96
83118;BME280;73000;51.784;4.660;2023-11-18T06:51:07;102264.31;;;6.93;86.43
83118;BME280;73000;51.784;4.660;2023-11-18T06:53:36;102259.50;;;6.89;86.23
83118;BME280;73000;51.784;4.660;2023-11-18T06:56:01;102255.69;;;6.90;86.15
83118;BME280;73000;51.784;4.660;2023-11-18T06:58:27;102251.47;;;6.87;86.26
83118;BME280;73000;51.784;4.660;2023-11-18T07:00:52;102234.38;;;6.85;86.47
83118;BME280;73000;51.784;4.660;2023-11-18T07:03:18;102254.75;;;6.96;86.71
83118;BME280;73000;51.784;4.660;2023-11-18T07:05:43;102253.44;;;6.98;86.59
83118;BME280;73000;51.784;4.660;2023-11-18T07:08:09;102234.97;;;6.87;86.30
83118;BME280;73000;51.784;4.660;2023-11-18T07:10:34;102240.56;;;6.99;86.08
83118;BME280;73000;51.784;4.660;2023-11-18T07:13:03;102232.16;;;6.94;86.61
83118;BME280;73000;51.784;4.660;2023-11-18T07:15:28;102236.59;;;6.95;85.82
83118;BME280;73000;51.784;4.660;2023-11-18T07:17:53;102254.31;;;6.99;85.85
83118;BME280;73000;51.784;4.660;2023-11-18T07:20:19;102254.06;;;7.00;86.88
83118;BME280;73000;51.784;4.660;2023-11-18T07:22:44;102249.34;;;6.89;86.15
83118;BME280;73000;51.784;4.660;2023-11-18T07:25:10;102271.16;;;7.02;85.90
83118;BME280;73000;51.784;4.660;2023-11-18T07:27:35;102258.03;;;7.04;86.63
83118;BME280;73000;51.784;4.660;2023-11-18T07:30:01;102264.66;;;7.15;85.74
83118;BME280;73000;51.784;4.660;2023-11-18T07:32:28;102262.16;;;7.13;86.03
83118;BME280;73000;51.784;4.660;2023-11-18T07:34:53;102244.53;;;7.03;85.20
83118;BME280;73000;51.784;4.660;2023-11-18T07:37:20;102266.81;;;7.13;85.59
83118;BME280;73000;51.784;4.660;2023-11-18T07:39:46;102269.09;;;7.16;85.84
83118;BME280;73000;51.784;4.660;2023-11-18T07:42:13;102256.50;;;7.08;85.98
83118;BME280;73000;51.784;4.660;2023-11-18T07:44:39;102241.09;;;7.07;86.01
83118;BME280;73000;51.784;4.660;2023-11-18T07:47:05;102254.97;;;7.12;85.66
83118;BME280;73000;51.784;4.660;2023-11-18T07:49:31;102253.66;;;7.15;85.64
83118;BME280;73000;51.784;4.660;2023-11-18T07:51:57;102234.97;;;7.05;85.94
83118;BME280;73000;51.784;4.660;2023-11-18T07:54:22;102244.31;;;7.16;85.67
83118;BME280;73000;51.784;4.660;2023-11-18T07:56:49;102235.09;;;7.10;85.73
83118;BME280;73000;51.784;4.660;2023-11-18T07:59:14;102215.94;;;7.04;85.82
83118;BME280;73000;51.784;4.660;2023-11-18T08:01:44;102213.56;;;7.07;86.49
83118;BME280;73000;51.784;4.660;2023-11-18T08:04:11;102231.13;;;7.06;86.26
83118;BME280;73000;51.784;4.660;2023-11-18T08:06:39;102243.97;;;7.12;86.01
83118;BME280;73000;51.784;4.660;2023-11-18T08:09:04;102229.03;;;7.20;86.72
83118;BME280;73000;51.784;4.660;2023-11-18T08:11:29;102241.34;;;7.17;85.80
83118;BME280;73000;51.784;4.660;2023-11-18T08:13:54;102220.19;;;7.18;86.24
83118;BME280;73000;51.784;4.660;2023-11-18T08:16:20;102225.13;;;7.27;86.38
83118;BME280;73000;51.784;4.660;2023-11-18T08:18:47;102225.25;;;7.32;86.05
83118;BME280;73000;51.784;4.660;2023-11-18T08:21:12;102229.09;;;7.31;86.39
83118;BME280;73000;51.784;4.660;2023-11-18T08:23:39;102225.78;;;7.41;86.33
83118;BME280;73000;51.784;4.660;2023-11-18T08:26:04;102229.59;;;7.40;86.26
83118;BME280;73000;51.784;4.660;2023-11-18T08:28:30;102207.69;;;7.33;86.49
83118;BME280;73000;51.784;4.660;2023-11-18T08:30:56;102192.25;;;7.32;86.46
83118;BME280;73000;51.784;4.660;2023-11-18T08:33:21;102206.75;;;7.39;86.89
83118;BME280;73000;51.784;4.660;2023-11-18T08:35:49;102199.84;;;7.48;86.28
83118;BME280;73000;51.784;4.660;2023-11-18T08:38:14;102202.44;;;7.43;87.57
83118;BME280;73000;51.784;4.660;2023-11-18T08:40:40;102192.41;;;7.37;87.00
83118;BME280;73000;51.784;4.660;2023-11-18T08:43:07;102193.84;;;7.40;87.53
83118;BME280;73000;51.784;4.660;2023-11-18T08:45:33;102190.97;;;7.46;87.06
83118;BME280;73000;51.784;4.660;2023-11-18T08:48:03;102166.53;;;7.38;87.53
83118;BME280;73000;51.784;4.660;2023-11-18T08:50:33;102177.72;;;7.55;87.20
83118;BME280;73000;51.784;4.660;2023-11-18T08:52:59;102166.66;;;7.43;86.85
83118;BME280;73000;51.784;4.660;2023-11-18T08:55:27;102166.81;;;7.48;86.91
83118;BME280;73000;51.784;4.660;2023-11-18T08:58:13;102162.50;;;7.52;87.36
83118;BME280;73000;51.784;4.660;2023-11-18T09:00:46;102164.19;;;7.53;87.77
83118;BME280;73000;51.784;4.660;2023-11-18T09:03:23;102164.44;;;7.63;87.49
83118;BME280;73000;51.784;4.660;2023-11-18T09:06:15;102136.03;;;7.51;87.27
83118;BME280;73000;51.784;4.660;2023-11-18T09:08:46;102131.88;;;7.60;87.30
83118;BME280;73000;51.784;4.660;2023-11-18T09:11:17;102124.19;;;7.62;87.61
83118;BME280;73000;51.784;4.660;2023-11-18T09:13:44;102128.06;;;7.73;87.83
83118;BME280;73000;51.784;4.660;2023-11-18T09:16:15;102114.63;;;7.77;87.33
83118;BME280;73000;51.784;4.660;2023-11-18T09:18:43;102127.56;;;7.88;87.07
83118;BME280;73000;51.784;4.660;2023-11-18T09:21:11;102134.38;;;7.97;86.60
83118;BME280;73000;51.784;4.660;2023-11-18T09:23:40;102137.50;;;7.89;87.02
83118;BME280;73000;51.784;4.660;2023-11-18T09:26:07;102121.94;;;7.94;87.32
83118;BME280;73000;51.784;4.660;2023-11-18T09:28:33;102103.97;;;7.92;87.19
83118;BME280;73000;51.784;4.660;2023-11-18T09:31:03;102112.72;;;8.00;86.87
83118;BME280;73000;51.784;4.660;2023-11-18T09:33:30;102093.06;;;7.97;87.38
83118;BME280;73000;51.784;4.660;2023-11-18T09:38:32;102087.09;;;8.00;86.87
83118;BME280;73000;51.784;4.660;2023-11-18T09:41:02;102082.78;;;7.92;86.91
83118;BME280;73000;51.784;4.660;2023-11-18T09:43:32;102097.16;;;8.06;87.53
83118;BME280;73000;51.784;4.660;2023-11-18T09:46:06;102097.00;;;8.12;87.17
83118;BME280;73000;51.784;4.660;2023-11-18T09:49:09;102072.22;;;8.01;87.31
83118;BME280;73000;51.784;4.660;2023-11-18T09:51:42;102071.72;;;8.27;86.98
83118;BME280;73000;51.784;4.660;2023-11-18T09:54:39;102068.00;;;8.21;86.88
83118;BME280;73000;51.784;4.660;2023-11-18T09:57:23;102059.75;;;8.21;87.40
83118;BME280;73000;51.784;4.660;2023-11-18T10:00:02;102056.59;;;8.29;87.37
83118;BME280;73000;51.784;4.660;2023-11-18T10:02:39;102035.56;;;8.23;88.01
83118;BME280;73000;51.784;4.660;2023-11-18T10:05:06;102031.81;;;8.29;87.60
83118;BME280;73000;51.784;4.660;2023-11-18T10:07:39;102053.97;;;8.34;87.66
83118;BME280;73000;51.784;4.660;2023-11-18T10:10:07;102052.44;;;8.27;87.87
83118;BME280;73000;51.784;4.660;2023-11-18T10:12:39;102056.38;;;8.31;87.63
83118;BME280;73000;51.784;4.660;2023-11-18T10:15:08;102054.78;;;8.35;88.10
83118;BME280;73000;51.784;4.660;2023-11-18T10:17:39;102037.69;;;8.33;87.95
83118;BME280;73000;51.784;4.660;2023-11-18T10:20:20;102048.41;;;8.46;88.13
83118;BME280;73000;51.784;4.660;2023-11-18T10:23:05;102044.69;;;8.52;87.42
83118;BME280;73000;51.784;4.660;2023-11-18T10:25:30;102049.16;;;8.41;88.17
83118;BME280;73000;51.784;4.660;2023-11-18T10:27:56;102037.50;;;8.51;87.75
83118;BME280;73000;51.784;4.660;2023-11-18T10:30:22;102024.84;;;8.38;87.26
83118;BME280;73000;51.784;4.660;2023-11-18T10:32:59;102002.06;;;8.43;87.86
83118;BME280;73000;51.784;4.660;2023-11-18T10:35:32;102001.78;;;8.44;87.86
83118;BME280;73000;51.784;4.660;2023-11-18T10:38:01;101990.91;;;8.38;88.30
83118;BME280;73000;51.784;4.660;2023-11-18T10:40:26;102001.22;;;8.42;88.59
83118;BME280;73000;51.784;4.660;2023-11-18T10:42:52;101994.84;;;8.42;88.99
83118;BME280;73000;51.784;4.660;2023-11-18T10:45:24;101988.44;;;8.53;88.86
83118;BME280;73000;51.784;4.660;2023-11-18T10:47:54;101991.44;;;8.51;88.73
83118;BME280;73000;51.784;4.660;2023-11-18T10:50:22;102007.50;;;8.54;89.01
83118;BME280;73000;51.784;4.660;2023-11-18T10:52:48;101989.19;;;8.48;88.83
83118;BME280;73000;51.784;4.660;2023-11-18T10:55:13;101994.97;;;8.47;89.01
83118;BME280;73000;51.784;4.660;2023-11-18T10:57:44;101974.56;;;8.48;89.26
83118;BME280;73000;51.784;4.660;2023-11-18T11:00:10;101944.16;;;8.43;89.43
83118;BME280;73000;51.784;4.660;2023-11-18T11:02:41;101945.00;;;8.43;90.27
83118;BME280;73000;51.784;4.660;2023-11-18T11:05:27;101935.78;;;8.38;90.53
83118;BME280;73000;51.784;4.660;2023-11-18T11:07:58;101888.44;;;8.41;90.34
83118;BME280;73000;51.784;4.660;2023-11-18T11:10:24;101865.97;;;8.49;90.25
83118;BME280;73000;51.784;4.660;2023-11-18T11:12:54;101880.75;;;8.59;90.52
83118;BME280;73000;51.784;4.660;2023-11-18T11:15:23;101858.78;;;8.48;90.01
83118;BME280;73000;51.784;4.660;2023-11-18T11:17:54;101845.56;;;8.50;89.98
83118;BME280;73000;51.784;4.660;2023-11-18T11:20:31;101849.59;;;8.59;89.67
83118;BME280;73000;51.784;4.660;2023-11-18T11:23:05;101865.72;;;8.67;89.72
83118;BME280;73000;51.784;4.660;2023-11-18T11:25:43;101839.25;;;8.66;89.52
83118;BME280;73000;51.784;4.660;2023-11-18T11:28:22;101835.16;;;8.68;89.10
83118;BME280;73000;51.784;4.660;2023-11-18T11:33:49;101814.44;;;8.66;89.27
83118;BME280;73000;51.784;4.660;2023-11-18T11:36:27;101821.41;;;8.73;89.75
83118;BME280;73000;51.784;4.660;2023-11-18T11:38:57;101803.78;;;8.74;89.18
83118;BME280;73000;51.784;4.660;2023-11-18T11:41:23;101791.75;;;8.80;89.04
83118;BME280;73000;51.784;4.660;2023-11-18T11:43:52;101790.34;;;8.78;88.85
83118;BME280;73000;51.784;4.660;2023-11-18T11:46:22;101802.03;;;8.85;89.72
83118;BME280;73000;51.784;4.660;2023-11-18T11:48:50;101765.00;;;8.81;89.33
83118;BME280;73000;51.784;4.660;2023-11-18T11:51:30;101770.59;;;8.86;89.19
83118;BME280;73000;51.784;4.660;2023-11-18T11:54:06;101764.31;;;8.90;89.24
83118;BME280;73000;51.784;4.660;2023-11-18T11:56:46;101737.78;;;8.89;88.67
83118;BME280;73000;51.784;4.660;2023-11-18T11:59:16;101725.69;;;8.90;89.29
83118;BME280;73000;51.784;4.660;2023-11-18T12:01:42;101722.41;;;8.93;88.69
83118;BME280;73000;51.784;4.660;2023-11-18T12:04:14;101724.00;;;8.89;89.33
83118;BME280;73000;51.784;4.660;2023-11-18T12:06:47;101690.34;;;8.87;89.36
83118;BME280;73000;51.784;4.660;2023-11-18T12:09:18;101714.25;;;9.03;88.90
83118;BME280;73000;51.784;4.660;2023-11-18T12:11:48;101698.75;;;8.97;89.16
83118;BME280;73000;51.784;4.660;2023-11-18T12:14:16;101674.09;;;8.91;88.94
83118;BME280;73000;51.784;4.660;2023-11-18T12:17:07;101693.25;;;8.97;89.17
83118;BME280;73000;51.784;4.660;2023-11-18T12:19:38;101681.22;;;8.87;89.63
83118;BME280;73000;51.784;4.660;2023-11-18T12:22:23;101677.50;;;8.98;89.40
83118;BME280;73000;51.784;4.660;2023-11-18T12:30:26;101628.25;;;8.85;89.53
83118;BME280;73000;51.784;4.660;2023-11-18T12:33:03;101640.53;;;8.99;89.46
83118;BME280;73000;51.784;4.660;2023-11-18T12:41:04;101607.53;;;9.09;88.94
83118;BME280;73000;51.784;4.660;2023-11-18T12:46:48;101618.16;;;8.95;89.70
83118;BME280;73000;51.784;4.660;2023-11-18T12:49:19;101595.31;;;9.00;89.55
83118;BME280;73000;51.784;4.660;2023-11-18T12:51:52;101599.78;;;9.06;89.38
83118;BME280;73000;51.784;4.660;2023-11-18T12:54:19;101597.53;;;9.03;89.61
83118;BME280;73000;51.784;4.660;2023-11-18T12:56:44;101594.72;;;8.98;89.71
83118;BME280;73000;51.784;4.660;2023-11-18T12:59:16;101580.38;;;8.96;89.25
83118;BME280;73000;51.784;4.660;2023-11-18T13:01:51;101558.84;;;8.93;90.11
83118;BME280;73000;51.784;4.660;2023-11-18T13:04:21;101550.91;;;9.01;89.82
83118;BME280;73000;51.784;4.660;2023-11-18T13:06:48;101534.81;;;8.93;89.92
83118;BME280;73000;51.784;4.660;2023-11-18T13:09:14;101560.06;;;9.07;89.94
83118;BME280;73000;51.784;4.660;2023-11-18T13:11:59;101538.19;;;9.00;89.60
83118;BME280;73000;51.784;4.660;2023-11-18T13:14:29;101558.16;;;9.12;89.27
83118;BME280;73000;51.784;4.660;2023-11-18T13:16:56;101545.13;;;9.03;89.27
83118;BME280;73000;51.784;4.660;2023-11-18T13:19:32;101562.88;;;9.12;89.71
83118;BME280;73000;51.784;4.660;2023-11-18T13:22:04;101562.38;;;9.15;89.37
83118;BME280;73000;51.784;4.660;2023-11-18T13:24:33;101530.50;;;9.02;89.97
83118;BME280;73000;51.784;4.660;2023-11-18T13:27:00;101529.59;;;8.92;90.42